48ème Rallye National de la Giraglia
Championnat de France des Rallyes 2ème Division
1 1 TROJANI Pascal/VESPERINI Jean-Noel Citroën Ds3 A 8W 55:01,4
2 2 NAVARRA Francois-Frederic/TYRAN Mathieu Ford Fiesta A 8W 55:20,7 +00:19,3 +00:19,3
3 3 ALERINI Paul/VERDURI Olivier Ford Fiesta A 8W 55:47,3 +00:45,9 +00:26,6
4 7 MANZAGOL Jean-Marc/PATRONE Etienne Ford Fiesta R 5 55:58,4 +00:57,0 +00:11,1
5 6 LEANDRI Jean-Mathieu/GORGUILO Anthony Skoda Fabia R 5 55:59,1 +00:57,7 +00:00,7
6 60 FRAYMOUTH François/FELICELLI Romain Peugeot 208 R 2 1:00:01,2 +04:59,8 +04:02,1
7 5 SIMONETTI Robert/SIMONETTI Celia Citroën Ds3 A 8W 1:00:18,6 +05:17,2 +00:17,4
8 32 FLORI Jean-Pierre/GARCIA Dann Renault Clio Ragnotti F2 14 1:00:32,3 +05:30,9 +00:13,7
9 36 JAUMON Lionel/ROQUE Cyril Renault Clio 3 Rs F2 14 1:00:32,4 +05:31,0 +00:00,1
10 61 MICHELI Hugo/RAFFAELLI Yoann Peugeot 208 R 2 1:01:09,0 +06:07,6 +00:36,6
11 19 DEFENDINI Romain/GHERARDI Gérard Citroën Ds3 R 3 1:01:09,0 +06:07,6
12 77 GANDOLFI Anthony/FINOCCHIARO Sébastien Citroën Saxo F2 13 1:01:28,1 +06:26,7 +00:19,1
13 24 VILLARET Benjamin/OBRECHT Justine Renault Clio R3 R 3 1:01:35,3 +06:33,9 +00:07,2
14 9 POLIDORI Frédéric/GOIA Laurent Ford Fiesta R 5 1:01:38,3 +06:36,9 +00:03,0
15 10 VILLORESI Christian/GIUDICELLI Cyril Skoda Fabia R 5 1:01:44,7 +06:43,3 +00:06,4
16 27 ROSSI Yannick/VOLPEI Baptiste Mitsubishi Evolution 9 N 4 1:02:24,4 +07:23,0 +00:39,7
17 38 RICO Michel/RICO Benjamin BMW --- F2 14 1:02:37,0 +07:35,6 +00:12,6
18 33 CAVILLAC Franck/CORSI Frédéric Renault Clio Rs F2 14 1:02:40,5 +07:39,1 +00:03,5
19 63 AGOSTINI Lucien/AGOSTINI Guillaume Peugeot 208 R 2B 1:02:41,0 +07:39,6 +00:00,5
20 21 CHIARONI Pascal/SANTINI Cédric Renault Clio R3 Max R 3 1:02:46,9 +07:45,5 +00:05,9
21 73 ARAGNEAU Philippe/MAZOTTI Francis Renault Clio FN 3 1:03:16,5 +08:15,1 +00:29,6
22 64 MAESTRACCI François/CASANOVA Sébastien Peugeot 208 R 2 1:03:27,3 +08:25,9 +00:10,8
23 16 BONEL Antony/MANENT Roselyne Opel Speedster Turbo GT 10 1:03:28,0 +08:26,6 +00:00,7
24 15 ROGNONI Daniel/BEAULIEU Noelise Porsche 911 GT 10 1:03:41,7 +08:40,3 +00:13,7
25 54 COMOLE Lionel/DINI Gilbert Peugeot 106 S16 A 6K 1:03:41,9 +08:40,5 +00:00,2
26 85 PERETTI Myriam/SALINI Laura Peugeot 106 FA 6 1:03:46,9 +08:45,5 +00:05,0
27 31 GREGORY Ugo/GREGORY Coralie Renault Clio Rs F2 14 1:04:04,4 +09:03,0 +00:17,5
28 57 BRAZ Paulo/SCICOLONE Edouard Citroën C2 FA 6K 1:04:06,0 +09:04,6 +00:01,6
29 79 FRANCISCI Yannick/VINCIGUERRA Lisa-Marie Peugeot 106 S16 F2 13 1:04:07,6 +09:06,2 +00:01,6
30 34 VANGIONI Francesco/THIERS Julien Renault Clio 3 Rs F2 14 1:04:14,5 +09:13,1 +00:06,9
31 66 ANFRIANI Paul-Etienne/RICOVERI Mallaury Citroën C2 R 2B 1:04:25,5 +09:24,1 +00:11,0
32 53 GHELARDINI Francois-Marie/ROCCA SERRA Laury Peugeot 206 Xs FA 6K 1:04:33,1 +09:31,7 +00:07,6
33 51 MARIANI Anthony/PIEVE Laura Peugeot 206 Xs FA 6K 1:04:34,1 +09:32,7 +00:01,0
34 26 BORT Julien/ZAVARSKY Alexy Renault Clio R3 Max R 3 1:04:34,9 +09:33,5 +00:00,8
35 81 CLAUDE Christophe/DELATTRE Judicael Citroën C2 F2 13 1:05:18,2 +10:16,8 +00:43,3
36 4 MICHELI Joseph/MICHELI Luna-Stella Ford Fiesta A 8W 1:05:20,6 +10:19,2 +00:02,4
37 23 AGOSTINI Quentin/BARRAL Florian Peugeot 207 Rc R 3 1:05:51,7 +10:50,3 +00:31,1
38 22 ETTORI Jean-Dominique/GUERRIERI Patrick Citroën Ds3 R 3 1:05:52,0 +10:50,6 +00:00,3
39 55 MARTELLI Cyril/BRUN Pierre-Marie Peugeot 206 Xs FA 6K 1:05:52,2 +10:50,8 +00:00,2
40 49 FIGARI Luca/FIGARI Morgan Renault Clio Super 1600 FA 6K 1:06:08,1 +11:06,7 +00:15,9
41 17 ALEGRE Francis/MURATI Laura BMW 325I FA 8 1:06:08,2 +11:06,8 +00:00,1
42 89 NAPOLI MELIO Michaël/BERNARDI Dominique Citroën C2 FA 6 1:06:27,6 +11:26,2 +00:19,4
43 80 DIFEO José/DIFEO Julien Citroën C2 F2 13 1:06:29,4 +11:28,0 +00:01,8
44 50 FERRARI Cédric/LAPINA Michela Peugeot 106 S16 FA 6K 1:06:40,6 +11:39,2 +00:11,2
45 98 NEGRI Jean-Michel/NEGRI Michel Peugeot 106 S16 FN 2 1:07:08,9 +12:07,5 +00:28,3
46 67 DE MEYER Jean-Michel/FRATTI Eric Peugeot 208 R 2 1:07:16,6 +12:15,2 +00:07,7
47 95 BERNOUS Bouchta/MARTINI Andrea Citroën Saxo Vts FN 2 1:07:53,1 +12:51,7 +00:36,5
48 30 LAUZERTE Alain/BARBE Isabelle Renault Megane N 4 1:07:54,1 +12:52,7 +00:01,0
49 93 MARIINI Michaël/REAL Thibaut Citroën Saxo Vts FN 2 1:07:58,8 +12:57,4 +00:04,7
50 28 AGOSTINI Anthony/ROYER Jérôme Renault Megane N 4 1:09:06,4 +14:05,0 +01:07,6
51 105 NICOLI Gérard/GALTIERI Marie-Flore Citroën Ax Sport FN 1 1:09:44,0 +14:42,6 +00:37,6
52 70 FABRA Jérémy/PONTIER Numa Renault Clio 16S FA 7 1:09:55,3 +14:53,9 +00:11,3
53 56 BALESTRACCI Stéphanie/CHIAPPE Patrick Peugeot 206 Xs FA 6K 1:10:03,6 +15:02,2 +00:08,3
54 29 LIMELETTE Marc/PONSOT Francois-Dominique Ford Escort Cosworth FN 4 1:10:25,7 +15:24,3 +00:22,1
55 104 BIAGGI Florian/ESCACH Matthieu Peugeot 106 S16 N 2S 1:12:59,0 +17:57,6 +02:33,3
56 102 TROMBI Philippe/NICOLAI Michaël Peugeot 106 Xsi F2 12 1:14:59,3 +19:57,9 +02:00,3
57 97 BORSELLI Charles/MANZONI Cédric Peugeot 106 FN 2 1:15:26,8 +20:25,4 +00:27,5
58 45 VANGIONI Graziano/BERTIN-MAURICE Kévin Renault Clio Rs F2 14 1:18:44,0 +23:42,6 +03:17,2
Clt Equipage Voiture Gr/Cl Temps Ecart 1er Ecart préc. Catégories
Commentaires: © PatricK Soft  
(Temps forfaitaires=couleur bleue)
Classés:58

Epreuve: Groupe: Catégorie:

 
Retour
Classement après ES7-Macinaggio - Ersa 3 (11.000 km)